createdAt,value
2023-05-07T00:03:40.186Z,82.50
2023-05-07T00:06:07.485Z,82.50
2023-05-07T00:08:34.368Z,82.50
2023-05-07T00:11:00.917Z,82.50
2023-05-07T00:18:31.381Z,82.50
2023-05-07T00:20:58.052Z,82.50
2023-05-07T00:23:24.684Z,82.50
2023-05-07T00:25:51.294Z,82.50
2023-05-07T00:28:17.938Z,82.50
2023-05-07T00:30:44.480Z,82.50
2023-05-07T00:33:11.190Z,82.50
2023-05-07T00:35:37.769Z,82.50
2023-05-07T00:38:04.508Z,82.50
2023-05-07T00:43:03.326Z,82.50
2023-05-07T00:48:03.178Z,82.50
2023-05-07T00:50:30.403Z,82.50
2023-05-07T00:52:57.369Z,82.50
2023-05-07T00:55:24.745Z,82.50
2023-05-07T00:57:52.209Z,82.50
2023-05-07T01:00:20.674Z,82.50
2023-05-07T01:02:47.485Z,83.20
2023-05-07T01:05:18.265Z,82.50
2023-05-07T01:07:46.272Z,82.60
2023-05-07T01:10:13.403Z,82.50
2023-05-07T01:12:42.053Z,82.50
2023-05-07T01:15:10.002Z,82.50
2023-05-07T01:25:17.334Z,82.40
2023-05-07T01:27:43.918Z,82.40
2023-05-07T01:30:11.089Z,82.40
2023-05-07T01:38:00.062Z,82.40
2023-05-07T01:53:09.268Z,82.40
2023-05-07T01:55:37.731Z,82.40
2023-05-07T01:58:05.329Z,82.40
2023-05-07T02:00:32.541Z,82.40
2023-05-07T02:02:59.705Z,82.40
2023-05-07T02:05:26.455Z,82.40
2023-05-07T02:07:53.013Z,82.30
2023-05-07T02:10:19.516Z,83.10
2023-05-07T02:12:46.129Z,82.40
2023-05-07T02:15:12.802Z,82.40
2023-05-07T02:18:05.886Z,82.30
2023-05-07T02:28:07.440Z,82.40
2023-05-07T02:33:05.941Z,82.40
2023-05-07T02:35:32.852Z,82.40
2023-05-07T02:37:59.527Z,82.40
2023-05-07T02:40:26.097Z,82.40
2023-05-07T02:45:24.491Z,82.40
2023-05-07T02:47:51.123Z,82.40
2023-05-07T02:50:17.768Z,82.40
2023-05-07T02:52:44.326Z,82.40
2023-05-07T02:55:11.532Z,82.40
2023-05-07T02:57:38.182Z,82.40
2023-05-07T03:00:15.587Z,82.40
2023-05-07T03:02:42.621Z,82.40
2023-05-07T03:07:42.006Z,82.40
2023-05-07T03:10:09.485Z,82.40
2023-05-07T03:17:40.735Z,82.30
2023-05-07T03:25:11.649Z,82.40
2023-05-07T03:30:11.343Z,82.30
2023-05-07T03:35:09.881Z,82.40
2023-05-07T03:47:43.961Z,82.20
2023-05-07T03:50:11.843Z,82.40
2023-05-07T03:52:38.575Z,82.30
2023-05-07T03:55:06.672Z,82.30
2023-05-07T03:57:33.349Z,82.30
2023-05-07T03:59:59.961Z,82.30
2023-05-07T04:02:26.622Z,82.20
2023-05-07T04:04:53.246Z,82.40
2023-05-07T04:07:19.893Z,82.30
2023-05-07T04:14:49.421Z,82.20
2023-05-07T04:17:15.949Z,82.40
2023-05-07T04:19:46.105Z,82.30
2023-05-07T04:22:12.997Z,82.40
2023-05-07T04:24:39.571Z,82.30
2023-05-07T04:27:07.287Z,82.30
2023-05-07T04:29:33.908Z,82.30
2023-05-07T04:32:00.625Z,82.30
2023-05-07T04:34:27.590Z,82.40
2023-05-07T04:36:54.206Z,82.40
2023-05-07T04:39:21.009Z,82.30
2023-05-07T04:41:47.597Z,82.30
2023-05-07T04:44:14.109Z,82.30
2023-05-07T04:46:40.688Z,82.30
2023-05-07T04:49:07.273Z,82.30
2023-05-07T04:51:33.862Z,82.30
2023-05-07T04:54:00.867Z,82.30
2023-05-07T04:56:30.068Z,82.30
2023-05-07T04:58:56.789Z,82.30
2023-05-07T05:01:23.324Z,82.30
2023-05-07T05:03:49.981Z,82.30
2023-05-07T05:06:16.572Z,82.30
2023-05-07T05:08:43.116Z,82.30
2023-05-07T05:11:09.642Z,82.30
2023-05-07T05:13:36.261Z,82.30
2023-05-07T05:16:02.937Z,83.00
2023-05-07T05:18:29.525Z,82.30
2023-05-07T05:20:56.384Z,82.30
2023-05-07T05:23:22.999Z,82.30
2023-05-07T05:25:49.560Z,82.30
2023-05-07T05:28:16.117Z,82.30
2023-05-07T05:30:42.738Z,82.30
2023-05-07T05:33:09.351Z,82.30
2023-05-07T05:35:36.386Z,82.30
2023-05-07T05:38:03.979Z,82.30
2023-05-07T05:40:30.555Z,82.30
2023-05-07T05:42:57.140Z,82.30
2023-05-07T05:45:23.773Z,82.30
2023-05-07T05:47:50.349Z,82.30
2023-05-07T05:50:16.963Z,82.30
2023-05-07T05:52:43.794Z,82.30
2023-05-07T05:55:10.346Z,82.30
2023-05-07T05:57:37.186Z,82.30
2023-05-07T06:00:05.304Z,82.30
2023-05-07T06:02:31.985Z,82.30
2023-05-07T06:04:58.666Z,82.40
2023-05-07T06:07:25.344Z,82.30
2023-05-07T06:09:51.963Z,82.30
2023-05-07T06:12:18.503Z,82.30
2023-05-07T06:19:48.219Z,82.20
2023-05-07T06:22:14.809Z,82.30
2023-05-07T06:29:44.435Z,82.20
2023-05-07T06:32:12.691Z,82.20
2023-05-07T06:37:12.149Z,82.20
2023-05-07T06:39:38.702Z,82.20
2023-05-07T06:49:39.992Z,82.20
2023-05-07T06:52:06.869Z,82.30
2023-05-07T06:57:04.918Z,82.20
2023-05-07T06:59:31.433Z,82.30
2023-05-07T07:01:57.993Z,82.20
2023-05-07T07:04:25.329Z,82.30
2023-05-07T07:06:54.789Z,82.20
2023-05-07T07:09:23.378Z,82.30
2023-05-07T07:11:50.695Z,82.20
2023-05-07T07:14:17.243Z,82.20
2023-05-07T07:16:43.803Z,82.20
2023-05-07T07:19:10.356Z,82.30
2023-05-07T07:21:36.923Z,82.20
2023-05-07T07:24:03.680Z,82.30
2023-05-07T07:26:30.422Z,82.30
2023-05-07T07:28:57.000Z,82.20
2023-05-07T07:31:23.620Z,82.30
2023-05-07T07:33:52.842Z,82.20
2023-05-07T07:36:19.880Z,82.20
2023-05-07T07:38:46.470Z,82.20
2023-05-07T07:41:13.048Z,82.20
2023-05-07T07:43:39.593Z,83.00
2023-05-07T07:46:06.279Z,82.20
2023-05-07T07:48:32.888Z,82.20
2023-05-07T07:50:59.625Z,82.20
2023-05-07T07:53:26.276Z,82.20
2023-05-07T07:55:53.988Z,82.10
2023-05-07T07:58:25.744Z,82.10
2023-05-07T08:00:52.332Z,82.00
2023-05-07T08:03:20.622Z,82.10
2023-05-07T08:13:22.996Z,82.10
2023-05-07T08:15:49.681Z,82.10
2023-05-07T08:18:16.354Z,82.20
2023-05-07T08:20:43.378Z,82.00
2023-05-07T08:23:09.993Z,82.90
2023-05-07T08:25:37.100Z,82.10
2023-05-07T08:28:04.279Z,82.20
2023-05-07T08:30:30.978Z,82.10
2023-05-07T08:32:57.574Z,82.20
2023-05-07T08:35:24.269Z,82.10
2023-05-07T08:37:50.848Z,82.10
2023-05-07T08:40:17.729Z,82.10
2023-05-07T08:42:45.581Z,82.10
2023-05-07T08:45:12.346Z,82.10
2023-05-07T08:50:17.406Z,82.20
2023-05-07T08:52:44.012Z,82.10
2023-05-07T09:05:17.557Z,86.00
2023-05-07T09:07:44.178Z,85.60
2023-05-07T09:10:11.081Z,85.40
2023-05-07T09:12:37.818Z,85.00
2023-05-07T09:15:05.023Z,86.10
2023-05-07T09:17:31.562Z,86.00
2023-05-07T09:22:38.930Z,85.80
2023-05-07T09:25:07.804Z,85.70
2023-05-07T09:27:34.406Z,85.50
2023-05-07T09:30:04.842Z,85.40
2023-05-07T09:32:34.089Z,85.30
2023-05-07T09:35:00.728Z,85.20
2023-05-07T09:37:28.049Z,85.10
2023-05-07T09:42:29.748Z,85.00
2023-05-07T09:44:56.381Z,84.90
2023-05-07T09:47:26.522Z,84.90
2023-05-07T09:55:07.024Z,84.70
2023-05-07T09:57:35.045Z,84.60
2023-05-07T10:00:07.016Z,84.60
2023-05-07T10:02:36.739Z,84.50
2023-05-07T10:05:04.150Z,84.50
2023-05-07T10:07:32.010Z,84.50
2023-05-07T10:10:00.066Z,84.40
2023-05-07T10:12:27.282Z,84.40
2023-05-07T10:14:55.275Z,84.30
2023-05-07T10:17:24.293Z,84.30
2023-05-07T10:19:53.986Z,84.30
2023-05-07T10:22:21.846Z,84.30
2023-05-07T10:24:52.650Z,84.30
2023-05-07T10:27:21.431Z,84.30
2023-05-07T10:30:14.263Z,84.20
2023-05-07T10:32:43.399Z,84.20
2023-05-07T10:35:22.579Z,84.10
2023-05-07T10:40:18.725Z,84.10
2023-05-07T10:42:58.397Z,84.10
2023-05-07T10:48:30.343Z,84.10
2023-05-07T10:54:11.615Z,84.10
2023-05-07T10:56:45.767Z,84.00
2023-05-07T11:02:03.511Z,83.90
2023-05-07T11:04:32.596Z,84.00
2023-05-07T11:09:59.306Z,83.90
2023-05-07T11:12:47.767Z,83.90
2023-05-07T11:15:18.706Z,84.00
2023-05-07T11:18:00.360Z,83.90
2023-05-07T11:28:32.091Z,83.90
2023-05-07T11:30:59.505Z,83.90
2023-05-07T11:33:26.995Z,83.90
2023-05-07T11:38:22.840Z,83.90
2023-05-07T11:40:53.942Z,83.90
2023-05-07T11:45:47.599Z,83.80
2023-05-07T11:50:55.658Z,83.80
2023-05-07T11:55:58.988Z,83.80
2023-05-07T12:03:22.860Z,84.60
2023-05-07T12:08:18.092Z,83.80
2023-05-07T12:10:46.202Z,83.90
2023-05-07T12:18:23.296Z,83.90
2023-05-07T12:20:51.218Z,83.80
2023-05-07T12:23:18.638Z,83.90
2023-05-07T12:25:48.639Z,83.90
2023-05-07T12:28:16.947Z,83.90
2023-05-07T12:30:45.781Z,83.90
2023-05-07T12:33:13.182Z,83.90
2023-05-07T12:35:43.641Z,83.90
2023-05-07T12:38:15.077Z,83.90
2023-05-07T12:40:44.135Z,83.90
2023-05-07T12:43:27.301Z,84.00
2023-05-07T12:53:30.825Z,83.90
2023-05-07T12:58:33.782Z,84.70
2023-05-07T13:04:13.964Z,83.90
2023-05-07T13:09:07.924Z,83.90
2023-05-07T13:11:34.609Z,83.90
2023-05-07T13:18:59.602Z,83.90
2023-05-07T13:21:27.809Z,83.90
2023-05-07T13:24:22.520Z,83.90
2023-05-07T13:29:36.578Z,83.90
2023-05-07T13:32:03.562Z,83.90
2023-05-07T13:34:30.416Z,83.80
2023-05-07T13:36:56.996Z,83.90
2023-05-07T13:41:55.013Z,83.90
2023-05-07T13:44:21.752Z,83.80
2023-05-07T13:46:48.302Z,83.90
2023-05-07T13:49:14.876Z,83.90
2023-05-07T13:51:41.457Z,83.80
2023-05-07T13:54:08.255Z,83.80
2023-05-07T13:56:34.897Z,83.90
2023-05-07T13:59:01.615Z,83.90
2023-05-07T14:01:28.652Z,83.90
2023-05-07T14:03:56.457Z,83.90
2023-05-07T14:06:23.029Z,83.80
2023-05-07T14:13:53.612Z,83.90
2023-05-07T14:18:51.740Z,83.90
2023-05-07T14:23:49.854Z,83.90
2023-05-07T14:26:16.674Z,83.80
2023-05-07T14:28:46.980Z,83.80
2023-05-07T14:36:18.237Z,83.80
2023-05-07T14:38:44.799Z,83.90
2023-05-07T14:41:11.335Z,83.80
2023-05-07T14:43:37.881Z,83.80
2023-05-07T14:46:04.621Z,83.70
2023-05-07T14:56:06.634Z,84.00
2023-05-07T14:58:33.272Z,84.10
2023-05-07T15:01:00.879Z,84.20
2023-05-07T15:08:21.466Z,85.20
2023-05-07T15:10:48.058Z,86.20
2023-05-07T15:13:16.153Z,87.30
2023-05-07T15:15:47.065Z,86.80
2023-05-07T15:18:14.201Z,87.20
2023-05-07T15:20:41.237Z,87.50
2023-05-07T15:23:13.810Z,87.90
2023-05-07T15:25:40.712Z,87.90
2023-05-07T15:28:07.780Z,88.30
2023-05-07T15:30:34.864Z,88.50
2023-05-07T15:33:03.313Z,88.80
2023-05-07T15:35:30.117Z,89.10
2023-05-07T15:37:56.667Z,89.40
2023-05-07T15:40:23.296Z,89.50
2023-05-07T15:42:49.853Z,89.70
2023-05-07T15:45:16.510Z,90.00
2023-05-07T15:47:43.212Z,89.50
2023-05-07T15:50:10.179Z,89.50
2023-05-07T15:52:36.839Z,90.00
2023-05-07T15:55:03.808Z,90.40
2023-05-07T15:57:30.532Z,90.70
2023-05-07T15:59:57.638Z,90.90
2023-05-07T16:02:24.489Z,90.60
2023-05-07T16:04:51.087Z,90.60
2023-05-07T16:07:19.378Z,91.20
2023-05-07T16:09:46.189Z,90.80
2023-05-07T16:14:40.094Z,90.50
2023-05-07T16:17:06.842Z,91.10
2023-05-07T16:19:33.666Z,91.00
2023-05-07T16:22:00.291Z,91.10
2023-05-07T16:29:29.853Z,91.40
2023-05-07T16:39:32.467Z,91.00
2023-05-07T16:41:59.068Z,90.90
2023-05-07T16:44:25.893Z,90.70
2023-05-07T16:46:53.168Z,90.70
2023-05-07T16:49:19.848Z,90.60
2023-05-07T16:51:46.954Z,90.50
2023-05-07T16:54:13.504Z,90.40
2023-05-07T17:06:46.925Z,90.70
2023-05-07T17:11:44.968Z,91.10
2023-05-07T17:14:11.526Z,91.00
2023-05-07T17:19:09.672Z,91.10
2023-05-07T17:21:36.271Z,91.20
2023-05-07T17:24:02.861Z,91.20
2023-05-07T17:26:29.495Z,91.20
2023-05-07T17:28:56.100Z,91.20
2023-05-07T17:31:22.952Z,91.00
2023-05-07T17:33:49.827Z,91.00
2023-05-07T17:36:16.545Z,91.00
2023-05-07T17:38:43.316Z,91.00
2023-05-07T17:41:10.076Z,90.90
2023-05-07T17:43:36.850Z,91.00
2023-05-07T17:46:03.664Z,91.00
2023-05-07T17:48:30.874Z,91.10
2023-05-07T17:51:04.410Z,91.10
2023-05-07T17:53:31.385Z,91.00
2023-05-07T17:55:58.449Z,91.30
2023-05-07T17:58:26.628Z,91.30
2023-05-07T18:00:56.511Z,91.30
2023-05-07T18:08:19.601Z,91.30
2023-05-07T18:10:46.947Z,91.20
2023-05-07T18:15:40.580Z,91.20
2023-05-07T18:20:34.210Z,91.10
2023-05-07T18:23:00.980Z,91.00
2023-05-07T18:25:27.714Z,91.00
2023-05-07T18:27:54.551Z,91.00
2023-05-07T18:30:22.236Z,90.90
2023-05-07T18:32:49.532Z,90.80
2023-05-07T18:35:17.001Z,90.80
2023-05-07T18:37:43.710Z,90.70
2023-05-07T18:40:10.892Z,90.70
2023-05-07T18:42:37.823Z,90.60
2023-05-07T18:45:05.039Z,90.60
2023-05-07T18:47:32.637Z,90.60
2023-05-07T18:50:00.873Z,90.50
2023-05-07T18:52:29.133Z,90.50
2023-05-07T18:54:56.058Z,90.80
2023-05-07T18:57:22.824Z,90.40
2023-05-07T18:59:51.892Z,90.40
2023-05-07T19:04:46.097Z,90.40
2023-05-07T19:09:42.387Z,90.30
2023-05-07T19:12:14.841Z,90.30
2023-05-07T19:14:42.691Z,90.20
2023-05-07T19:17:09.512Z,90.20
2023-05-07T19:19:36.207Z,90.20
2023-05-07T19:22:02.919Z,90.20
2023-05-07T19:26:56.240Z,90.10
2023-05-07T19:29:23.019Z,90.10
2023-05-07T19:31:49.860Z,90.10
2023-05-07T19:34:16.674Z,90.00
2023-05-07T19:41:37.382Z,90.00
2023-05-07T19:44:04.547Z,90.00
2023-05-07T19:51:25.010Z,89.90
2023-05-07T20:01:15.408Z,89.90
2023-05-07T20:13:52.194Z,89.70
2023-05-07T20:16:19.144Z,89.70
2023-05-07T20:18:45.951Z,89.60
2023-05-07T20:21:12.687Z,89.60
2023-05-07T20:23:39.525Z,89.50
2023-05-07T20:26:06.181Z,89.50
2023-05-07T20:28:32.950Z,89.60
2023-05-07T20:30:59.708Z,89.50
2023-05-07T20:33:27.136Z,89.50
2023-05-07T20:35:53.993Z,89.50
2023-05-07T20:38:20.850Z,89.40
2023-05-07T20:40:47.606Z,89.40
2023-05-07T20:46:02.914Z,89.40
2023-05-07T20:49:21.634Z,89.40
2023-05-07T20:51:48.368Z,89.40
2023-05-07T20:57:25.849Z,89.30
2023-05-07T21:07:40.640Z,89.30
2023-05-07T21:10:25.839Z,89.30
2023-05-07T21:13:32.116Z,89.40
2023-05-07T21:15:59.727Z,89.30
2023-05-07T21:18:29.180Z,89.10
2023-05-07T21:20:56.022Z,89.10
2023-05-07T21:26:35.858Z,89.10
2023-05-07T21:29:04.978Z,89.20
2023-05-07T21:31:31.854Z,89.10
2023-05-07T21:33:58.692Z,89.10
2023-05-07T21:36:25.556Z,89.10
2023-05-07T21:38:52.292Z,89.10
2023-05-07T21:41:20.552Z,89.00
2023-05-07T21:43:47.285Z,89.10
2023-05-07T21:46:13.961Z,89.00
2023-05-07T21:48:40.918Z,89.00
2023-05-07T21:51:08.351Z,89.00
2023-05-07T21:53:39.179Z,89.10
2023-05-07T21:56:09.670Z,89.00
2023-05-07T21:58:36.813Z,89.00
2023-05-07T22:01:03.585Z,89.00
2023-05-07T22:03:30.428Z,89.00
2023-05-07T22:05:57.199Z,89.00
2023-05-07T22:08:24.581Z,89.00
2023-05-07T22:13:17.989Z,88.90
2023-05-07T22:15:56.021Z,88.90
2023-05-07T22:25:45.175Z,88.70
2023-05-07T22:28:11.809Z,88.70
2023-05-07T22:30:38.596Z,88.70
2023-05-07T22:33:06.007Z,88.70
2023-05-07T22:35:32.722Z,88.70
2023-05-07T22:37:59.469Z,88.70
2023-05-07T22:40:26.082Z,88.60
2023-05-07T22:42:52.800Z,88.50
2023-05-07T22:45:19.451Z,88.60
2023-05-07T22:47:46.203Z,88.60
2023-05-07T22:50:13.086Z,88.50
2023-05-07T22:52:40.022Z,88.50
2023-05-07T22:55:07.346Z,88.50
2023-05-07T22:57:33.999Z,88.50
2023-05-07T23:00:00.902Z,88.40
2023-05-07T23:02:30.428Z,89.30
2023-05-07T23:04:59.685Z,88.50
2023-05-07T23:07:26.647Z,88.60
2023-05-07T23:09:53.483Z,88.50
2023-05-07T23:12:20.167Z,88.50
2023-05-07T23:14:46.914Z,88.40
2023-05-07T23:17:13.861Z,88.30
2023-05-07T23:19:41.246Z,88.30
2023-05-07T23:22:07.861Z,88.40
2023-05-07T23:24:34.901Z,88.30
2023-05-07T23:27:06.259Z,88.30
2023-05-07T23:29:33.456Z,88.30
2023-05-07T23:32:01.825Z,88.30
2023-05-07T23:34:28.577Z,88.30
2023-05-07T23:36:55.292Z,88.40
2023-05-07T23:39:22.045Z,88.40
2023-05-07T23:41:48.777Z,88.30
2023-05-07T23:44:18.258Z,88.20
2023-05-07T23:49:11.929Z,88.20
2023-05-07T23:51:38.710Z,88.10
2023-05-07T23:54:06.521Z,88.10
2023-05-07T23:56:33.604Z,88.20
